aviador You're here:

KUGN Decoded Metar

CHICAGO in IL, USA
Report Time2017-08-19 10:55:00
UTC Time2017-08-19 11:15:28
Flight Rules mvfr MVFR
Wind320° at 04 kt
W.Decomp.*RWY 32: 4.0 kt HW 0.2 kt RCW
RWY 05: 0.2 kt HW 4 kt LCW
W.Rank320° ranks 17
Current wind is below 320° avg. (6.0)
Visibility8047 m
Phenomena:Mist
Clouds:N/A
CeilingNone
Temp16°C (ISA +2)
Dew Point16°C (100% RH)
QNH1013 hPa
Density Alt1,263 ft
Elevation728 ft
Report Wrong Elevation
Raw Report
METAR KUGN 191055Z 32004KT 5SM BR CLR 16/16 A2991 RMK AO2 SLP121 T01610156=

Extra information for KUGN:More info

Metar Taf Metar & Taf Last 4 Metars F.Rules Stats Wind Profile Meteogram Temp Stats Airport Information Weather charts Add Link Nearby VenuesMetar ALERT Operation Metar Decoded Social comments

AIRNAV info for KUGN